CWIL

Hat Island Airport

Canada
METAR CWIL 190300Z AUTO 17008KT ////SM BKN018 BKN038 M05/M06 A2969
Observed Flight Rules
Sep-19 @ 03:00 UTC (48 minutes ago)
Wind Clouds
170° at 8 knots
  • Broken at 1,800' AGL
  • Broken at 3,800' AGL
Temperatures Readings
Current -5°C / 23°F
Dewpoint -6°C / 21°F
Humidity 93%
Altimeter 29.69" Hg
Pressure 1005 hPa
Elevation 36
METAR CWIL 190300Z AUTO 17008KT ////SM BKN018 BKN038 M05/M06 A2969
Observed Flight Rules
Sep-19 @ 03:00 UTC
(48 minutes ago)
Wind
170° at 8 knots
Clouds
  • Broken at 1,800' AGL
  • Broken at 3,800' AGL
Temperature Dewpoint
-5°C / 23°F -6°C / 21°F
Humidity Altimeter Pressure
93% 29.69" Hg 1005 hPa